Time;durP1;ratioP1;P1;durP2;ratioP2;P2;SDS_P1;SDS_P2;PMS_P1;PMS_P2;Temp;Humidity;BMP_temperature;BMP_pressure;BME280_temperature;BME280_humidity;BME280_pressure;Samples;Min_cycle;Max_cycle;Signal;HPM_P1;HPM_P2
2022/05/12 00:02:08;;;;;;;;;;;11.10;99.90;;;;;;5007420;28;20027;-80
2022/05/12 00:04:35;;;;;;;;;;;11.10;99.90;;;;;;5004667;28;19926;-83
2022/05/12 00:07:01;;;;;;;;;;;11.00;99.90;;;;;;4996234;28;20012;-81
2022/05/12 00:09:27;;;;;;;;;;;11.00;99.90;;;;;;5006992;28;20020;-81
2022/05/12 00:11:53;;;;;;;;;;;11.00;99.90;;;;;;4960345;28;19988;-82
2022/05/12 00:14:18;;;;;;;;;;;11.00;99.90;;;;;;5007941;28;19992;-83
2022/05/12 00:16:44;;;;;;;;;;;11.00;99.90;;;;;;5008214;28;19933;-81
2022/05/12 00:19:10;;;;;;;;;;;11.00;99.90;;;;;;4987798;28;19929;-83
2022/05/12 00:21:36;;;;;;;;;;;10.90;99.90;;;;;;4975994;28;19952;-83
2022/05/12 00:24:01;;;;;;;;;;;10.90;99.90;;;;;;5007430;28;19926;-82
2022/05/12 00:26:28;;;;;;;;;;;10.90;99.90;;;;;;5008222;28;20273;-82
2022/05/12 00:28:56;;;;;;;;;;;10.90;99.90;;;;;;4992491;28;20385;-81
2022/05/12 00:31:21;;;;;;;;;;;10.90;99.90;;;;;;5007752;28;19949;-81
2022/05/12 00:33:47;;;;;;;;;;;10.90;99.90;;;;;;5008079;28;20366;-82
2022/05/12 00:36:13;;;;;;;;;;;10.90;99.90;;;;;;5007938;28;19930;-81
2022/05/12 00:38:38;;;;;;;;;;;11.00;99.90;;;;;;4975316;28;19925;-81
2022/05/12 00:41:04;;;;;;;;;;;11.00;99.90;;;;;;4959283;28;19965;-80
2022/05/12 00:43:33;;;;;;;;;;;11.00;99.90;;;;;;5007545;28;19926;-80
2022/05/12 00:45:58;;;;;;;;;;;11.00;99.90;;;;;;5007808;28;19972;-81
2022/05/12 00:48:24;;;;;;;;;;;11.00;99.90;;;;;;5007332;28;19972;-82
2022/05/12 00:50:50;;;;;;;;;;;11.00;99.90;;;;;;4987266;28;19930;-81
2022/05/12 00:53:16;;;;;;;;;;;10.90;99.90;;;;;;4946703;28;19930;-78
2022/05/12 00:55:43;;;;;;;;;;;10.90;99.90;;;;;;4951774;28;19926;-81
2022/05/12 00:58:10;;;;;;;;;;;10.90;99.90;;;;;;4995545;28;19979;-82
2022/05/12 01:00:36;;;;;;;;;;;10.90;99.90;;;;;;5011294;28;19996;-81
2022/05/12 01:03:03;;;;;;;;;;;10.80;99.90;;;;;;4978688;28;19934;-81
2022/05/12 01:05:29;;;;;;;;;;;10.80;99.90;;;;;;5007996;28;19977;-80
2022/05/12 01:07:55;;;;;;;;;;;10.80;99.90;;;;;;4968917;28;19930;-80
2022/05/12 01:10:22;;;;;;;;;;;10.80;99.90;;;;;;4972595;28;20279;-80
2022/05/12 01:12:48;;;;;;;;;;;10.80;99.90;;;;;;5011573;28;20386;-81
2022/05/12 01:15:14;;;;;;;;;;;10.80;99.90;;;;;;4978579;28;19965;-80
2022/05/12 01:17:40;;;;;;;;;;;10.70;99.90;;;;;;4994505;28;19930;-81
2022/05/12 01:20:06;;;;;;;;;;;10.70;99.90;;;;;;4995858;28;20400;-82
2022/05/12 01:22:35;;;;;;;;;;;10.80;99.90;;;;;;4976893;28;19926;-80
2022/05/12 01:25:01;;;;;;;;;;;10.70;99.90;;;;;;5011121;28;19969;-80
2022/05/12 01:27:29;;;;;;;;;;;10.70;99.90;;;;;;5010837;28;20463;-80
2022/05/12 01:29:56;;;;;;;;;;;10.70;99.90;;;;;;5011019;28;20454;-79
2022/05/12 01:32:22;;;;;;;;;;;10.70;99.90;;;;;;5009825;28;20020;-79
2022/05/12 01:34:48;;;;;;;;;;;10.70;99.90;;;;;;5010698;28;20266;-80
2022/05/12 01:37:14;;;;;;;;;;;10.70;99.90;;;;;;5011131;28;19940;-80
2022/05/12 01:39:39;;;;;;;;;;;10.60;99.90;;;;;;5010456;28;20012;-81
2022/05/12 01:42:06;;;;;;;;;;;10.70;99.90;;;;;;4993998;28;20341;-80
2022/05/12 01:44:32;;;;;;;;;;;10.60;99.90;;;;;;5010597;28;19926;-81
2022/05/12 01:46:58;;;;;;;;;;;10.60;99.90;;;;;;5010295;28;19948;-82
2022/05/12 01:49:24;;;;;;;;;;;10.60;99.90;;;;;;5010194;28;19926;-80
2022/05/12 01:51:53;;;;;;;;;;;10.50;99.90;;;;;;5010547;28;19976;-80
2022/05/12 01:54:19;;;;;;;;;;;10.50;99.90;;;;;;5010168;28;19926;-81
2022/05/12 01:56:45;;;;;;;;;;;10.50;99.90;;;;;;4991576;28;20389;-81
2022/05/12 01:59:10;;;;;;;;;;;10.40;99.90;;;;;;5008290;28;19929;-80
2022/05/12 02:01:36;;;;;;;;;;;10.50;99.90;;;;;;4977232;28;20028;-80
2022/05/12 02:04:02;;;;;;;;;;;10.50;99.90;;;;;;4992800;28;19926;-81
2022/05/12 02:06:28;;;;;;;;;;;10.50;99.90;;;;;;4977030;28;20294;-80
2022/05/12 02:08:53;;;;;;;;;;;10.40;99.90;;;;;;4974249;28;19977;-81
2022/05/12 02:11:19;;;;;;;;;;;10.50;99.90;;;;;;4985905;28;19926;-77
2022/05/12 02:13:44;;;;;;;;;;;10.40;99.90;;;;;;4985671;28;19929;-81
2022/05/12 02:16:10;;;;;;;;;;;10.50;99.90;;;;;;5009646;28;20374;-81
2022/05/12 02:18:35;;;;;;;;;;;10.40;99.90;;;;;;4977436;28;19926;-80
2022/05/12 02:21:01;;;;;;;;;;;10.40;99.90;;;;;;4961772;28;20392;-81
2022/05/12 02:23:27;;;;;;;;;;;10.40;99.90;;;;;;5009370;28;19952;-81
2022/05/12 02:25:52;;;;;;;;;;;10.40;99.90;;;;;;5010075;28;20067;-80
2022/05/12 02:28:18;;;;;;;;;;;10.40;99.90;;;;;;4977164;28;19949;-80
2022/05/12 02:30:44;;;;;;;;;;;10.40;99.90;;;;;;5009324;28;19921;-80
2022/05/12 02:33:09;;;;;;;;;;;10.30;99.90;;;;;;5010266;28;20016;-81
2022/05/12 02:35:35;;;;;;;;;;;10.40;99.90;;;;;;4977429;28;19937;-80
2022/05/12 02:38:01;;;;;;;;;;;10.40;99.90;;;;;;4973626;28;19926;-79
2022/05/12 02:40:28;;;;;;;;;;;10.40;99.90;;;;;;5009749;28;20297;-81
2022/05/12 02:42:54;;;;;;;;;;;10.30;99.90;;;;;;5002828;28;19926;-80
2022/05/12 02:45:20;;;;;;;;;;;10.40;99.90;;;;;;5009014;28;20024;-81
2022/05/12 02:47:45;;;;;;;;;;;10.40;99.90;;;;;;4975634;28;20012;-81
2022/05/12 02:50:12;;;;;;;;;;;10.40;99.90;;;;;;5009748;28;19972;-80
2022/05/12 02:52:38;;;;;;;;;;;10.30;99.90;;;;;;5005662;28;19929;-80
2022/05/12 02:55:03;;;;;;;;;;;10.40;99.90;;;;;;4993035;28;20329;-81
2022/05/12 02:57:29;;;;;;;;;;;10.40;99.90;;;;;;5009666;28;19933;-80
2022/05/12 02:59:55;;;;;;;;;;;10.40;99.90;;;;;;4993264;28;19937;-79
2022/05/12 03:02:20;;;;;;;;;;;10.40;99.90;;;;;;5007902;28;19929;-80
2022/05/12 03:04:46;;;;;;;;;;;10.40;99.90;;;;;;5008275;28;19930;-80
2022/05/12 03:07:12;;;;;;;;;;;10.40;99.90;;;;;;5008466;28;20371;-81
2022/05/12 03:09:37;;;;;;;;;;;10.40;99.90;;;;;;5008498;28;19926;-81
2022/05/12 03:12:03;;;;;;;;;;;10.40;99.90;;;;;;5007982;28;19969;-80
2022/05/12 03:14:29;;;;;;;;;;;10.40;99.90;;;;;;4975807;28;19926;-81
2022/05/12 03:16:55;;;;;;;;;;;10.40;99.90;;;;;;4976317;28;19937;-81
2022/05/12 03:19:22;;;;;;;;;;;10.40;99.90;;;;;;4993254;28;19929;-80
2022/05/12 03:21:48;;;;;;;;;;;10.40;99.90;;;;;;5006494;28;19934;-80
2022/05/12 03:24:14;;;;;;;;;;;10.40;99.90;;;;;;4973169;28;19922;-81
2022/05/12 03:26:40;;;;;;;;;;;10.40;99.90;;;;;;5008334;28;20292;-80
2022/05/12 03:29:06;;;;;;;;;;;10.40;99.90;;;;;;4975166;28;19925;-81
2022/05/12 03:31:31;;;;;;;;;;;10.40;99.90;;;;;;5007961;28;19945;-81
2022/05/12 03:33:57;;;;;;;;;;;10.30;99.90;;;;;;4975653;28;20105;-80
2022/05/12 03:36:22;;;;;;;;;;;10.30;99.90;;;;;;4975888;28;20294;-81
2022/05/12 03:38:48;;;;;;;;;;;10.30;99.90;;;;;;4960473;28;20362;-81
2022/05/12 03:41:14;;;;;;;;;;;10.40;99.90;;;;;;4992286;28;19926;-80
2022/05/12 03:46:23;;;;;;;;;;;10.30;99.90;;;;;;5009106;28;19926;-81
2022/05/12 03:48:49;;;;;;;;;;;10.40;99.90;;;;;;5008501;28;20021;-80
2022/05/12 03:51:15;;;;;;;;;;;10.30;99.90;;;;;;4975663;28;20353;-81
2022/05/12 03:53:40;;;;;;;;;;;10.40;99.90;;;;;;4974955;28;19976;-79
2022/05/12 03:56:07;;;;;;;;;;;10.40;99.90;;;;;;4995238;28;19922;-79
2022/05/12 03:58:33;;;;;;;;;;;10.40;99.90;;;;;;4971331;28;20057;-80
2022/05/12 04:00:59;;;;;;;;;;;10.40;99.90;;;;;;4992279;28;20278;-81
2022/05/12 04:03:25;;;;;;;;;;;10.50;99.90;;;;;;5007337;28;19926;-81
2022/05/12 04:05:50;;;;;;;;;;;10.50;99.90;;;;;;4971801;28;20013;-81
2022/05/12 04:08:16;;;;;;;;;;;10.50;99.90;;;;;;4962477;28;20020;-81
2022/05/12 04:10:42;;;;;;;;;;;10.50;99.90;;;;;;4980794;28;19926;-81
2022/05/12 04:13:07;;;;;;;;;;;10.50;99.90;;;;;;5008640;28;19980;-80
2022/05/12 04:15:33;;;;;;;;;;;10.50;99.90;;;;;;4975307;28;19949;-80
2022/05/12 04:18:00;;;;;;;;;;;10.50;99.90;;;;;;4991867;28;19933;-81
2022/05/12 04:20:26;;;;;;;;;;;10.50;99.90;;;;;;4975288;28;19972;-78
2022/05/12 04:22:52;;;;;;;;;;;10.50;99.90;;;;;;4975580;28;19976;-81
2022/05/12 04:25:17;;;;;;;;;;;10.50;99.90;;;;;;5008111;28;19926;-81
2022/05/12 04:27:43;;;;;;;;;;;10.50;99.90;;;;;;4992740;28;19926;-80
2022/05/12 04:30:11;;;;;;;;;;;10.60;99.90;;;;;;4995238;28;19948;-81
2022/05/12 04:32:37;;;;;;;;;;;10.60;99.90;;;;;;4979894;28;20023;-81
2022/05/12 04:35:15;;;;;;;;;;;10.60;99.90;;;;;;4995844;28;19984;-80
2022/05/12 04:37:44;;;;;;;;;;;10.60;99.90;;;;;;4978734;28;20321;-81
2022/05/12 04:40:15;;;;;;;;;;;10.60;99.90;;;;;;4995953;28;20332;-81
2022/05/12 04:42:41;;;;;;;;;;;10.70;99.90;;;;;;5011978;28;20278;-77
2022/05/12 04:45:07;;;;;;;;;;;10.70;99.90;;;;;;5011425;28;19948;-80
2022/05/12 04:47:33;;;;;;;;;;;10.70;99.90;;;;;;4979372;28;19933;-81
2022/05/12 04:49:59;;;;;;;;;;;10.80;99.90;;;;;;5010761;28;19921;-81
2022/05/12 04:52:25;;;;;;;;;;;10.90;99.90;;;;;;4986249;28;19969;-81
2022/05/12 04:54:50;;;;;;;;;;;10.90;99.90;;;;;;4979006;28;19930;-81
2022/05/12 04:57:16;;;;;;;;;;;10.90;99.90;;;;;;5011247;28;19926;-81
2022/05/12 04:59:42;;;;;;;;;;;10.90;99.90;;;;;;5010611;28;19926;-81
2022/05/12 05:02:07;;;;;;;;;;;11.00;99.90;;;;;;5011692;28;20012;-81
2022/05/12 05:04:33;;;;;;;;;;;11.10;99.90;;;;;;4995437;28;19925;-81
2022/05/12 05:06:59;;;;;;;;;;;11.10;99.90;;;;;;5010480;28;19980;-81
2022/05/12 05:09:24;;;;;;;;;;;11.10;99.90;;;;;;4978890;28;19930;-81
2022/05/12 05:11:50;;;;;;;;;;;11.20;99.90;;;;;;5011521;28;19976;-80
2022/05/12 05:14:16;;;;;;;;;;;11.30;99.90;;;;;;5011110;28;20008;-81
2022/05/12 05:16:42;;;;;;;;;;;11.40;99.90;;;;;;5009709;28;20021;-81
2022/05/12 05:19:08;;;;;;;;;;;11.40;99.90;;;;;;4978726;28;19926;-81
2022/05/12 05:21:34;;;;;;;;;;;11.50;99.90;;;;;;5010822;28;20293;-80
2022/05/12 05:23:59;;;;;;;;;;;11.60;99.90;;;;;;5011318;28;19925;-81
2022/05/12 05:26:25;;;;;;;;;;;11.70;99.90;;;;;;4975742;28;19934;-80
2022/05/12 05:28:50;;;;;;;;;;;11.80;99.90;;;;;;4993790;28;19926;-81
2022/05/12 05:31:16;;;;;;;;;;;11.80;99.90;;;;;;4975779;28;19926;-80
2022/05/12 05:33:42;;;;;;;;;;;11.90;99.90;;;;;;4998249;28;20259;-81
2022/05/12 05:36:07;;;;;;;;;;;11.90;99.90;;;;;;5009703;28;19933;-81
2022/05/12 05:38:33;;;;;;;;;;;11.90;99.90;;;;;;5010306;28;20048;-81
2022/05/12 05:40:59;;;;;;;;;;;12.00;99.90;;;;;;4978404;28;19958;-81
2022/05/12 05:43:26;;;;;;;;;;;12.00;99.90;;;;;;4977812;28;20394;-80
2022/05/12 05:45:52;;;;;;;;;;;12.10;99.90;;;;;;4958115;28;19933;-81
2022/05/12 05:48:18;;;;;;;;;;;12.10;99.90;;;;;;5004778;28;20294;-80
2022/05/12 05:53:30;;;;;;;;;;;12.20;99.90;;;;;;4994461;28;20393;-81
2022/05/12 05:55:59;;;;;;;;;;;12.20;99.90;;;;;;5010571;28;20116;-81
2022/05/12 05:58:25;;;;;;;;;;;12.30;99.90;;;;;;4977830;28;19937;-81
2022/05/12 06:00:51;;;;;;;;;;;12.30;99.90;;;;;;5010258;28;19930;-80
2022/05/12 06:03:17;;;;;;;;;;;12.30;99.90;;;;;;4976741;28;20139;-78
2022/05/12 06:05:43;;;;;;;;;;;12.30;99.90;;;;;;4993035;28;20012;-82
2022/05/12 06:08:09;;;;;;;;;;;12.40;99.90;;;;;;4958487;28;19989;-84
2022/05/12 06:10:35;;;;;;;;;;;12.40;99.90;;;;;;4991879;28;19930;-83
2022/05/12 06:13:02;;;;;;;;;;;12.40;99.90;;;;;;4960105;28;19984;-83
2022/05/12 06:15:28;;;;;;;;;;;12.50;99.90;;;;;;5008319;28;19945;-81
2022/05/12 06:17:54;;;;;;;;;;;12.50;99.90;;;;;;5009922;28;19926;-81
2022/05/12 06:20:21;;;;;;;;;;;12.60;99.90;;;;;;5009420;28;20342;-80
2022/05/12 06:22:46;;;;;;;;;;;12.60;99.90;;;;;;4976503;28;20279;-82
2022/05/12 06:25:14;;;;;;;;;;;12.60;99.90;;;;;;5008922;28;19922;-81
2022/05/12 06:27:39;;;;;;;;;;;12.60;99.90;;;;;;4990575;28;19943;-81
2022/05/12 06:30:06;;;;;;;;;;;12.60;99.90;;;;;;5008695;28;20013;-81
2022/05/12 06:32:32;;;;;;;;;;;12.70;99.90;;;;;;4977294;28;19995;-81
2022/05/12 06:34:57;;;;;;;;;;;12.70;99.90;;;;;;5009379;28;19972;-81
2022/05/12 06:37:23;;;;;;;;;;;12.80;99.90;;;;;;4994741;28;20381;-79
2022/05/12 06:39:48;;;;;;;;;;;12.80;99.90;;;;;;5009549;28;19933;-78
2022/05/12 06:42:14;;;;;;;;;;;12.80;99.90;;;;;;5008756;28;20370;-78
2022/05/12 06:44:42;;;;;;;;;;;12.90;99.90;;;;;;4998784;28;19977;-78
2022/05/12 06:47:12;;;;;;;;;;;12.90;99.90;;;;;;5005890;28;20020;-78
2022/05/12 06:49:37;;;;;;;;;;;13.00;99.90;;;;;;4990950;28;19953;-79
2022/05/12 06:52:05;;;;;;;;;;;13.00;99.90;;;;;;5008941;28;20374;-78
2022/05/12 06:54:34;;;;;;;;;;;13.00;99.90;;;;;;4994282;28;19929;-79
2022/05/12 06:57:00;;;;;;;;;;;13.10;99.90;;;;;;5008545;28;19929;-75
2022/05/12 06:59:26;;;;;;;;;;;13.00;99.90;;;;;;5008883;28;19926;-77
2022/05/12 07:01:51;;;;;;;;;;;13.10;99.90;;;;;;4980909;28;19926;-78
2022/05/12 07:04:18;;;;;;;;;;;13.10;99.90;;;;;;4993369;28;19937;-79
2022/05/12 07:06:44;;;;;;;;;;;13.10;99.90;;;;;;5009474;28;20274;-79
2022/05/12 07:09:09;;;;;;;;;;;13.10;99.90;;;;;;5009333;28;19926;-79
2022/05/12 07:11:35;;;;;;;;;;;13.20;99.90;;;;;;5008949;28;19930;-80
2022/05/12 07:14:01;;;;;;;;;;;13.20;99.90;;;;;;5008990;28;19932;-78
2022/05/12 07:16:26;;;;;;;;;;;13.30;99.90;;;;;;4977004;28;19932;-78
2022/05/12 07:18:52;;;;;;;;;;;13.30;99.90;;;;;;5009052;28;19926;-80
2022/05/12 07:26:47;;;;;;;;;;;13.40;99.90;;;;;;4959264;28;19977;-78
2022/05/12 07:29:15;;;;;;;;;;;13.40;99.90;;;;;;5003070;28;19934;-79
2022/05/12 07:31:41;;;;;;;;;;;13.50;99.90;;;;;;4976067;28;19976;-79
2022/05/12 07:34:08;;;;;;;;;;;13.60;99.90;;;;;;5008819;28;19929;-79
2022/05/12 07:36:38;;;;;;;;;;;13.60;99.90;;;;;;5009373;28;20366;-79
2022/05/12 07:39:05;;;;;;;;;;;13.70;99.90;;;;;;5009162;28;20283;-79
2022/05/12 07:41:31;;;;;;;;;;;13.70;99.90;;;;;;4991377;28;19929;-78
2022/05/12 07:43:58;;;;;;;;;;;13.80;99.90;;;;;;5008915;28;20270;-78
2022/05/12 07:46:25;;;;;;;;;;;13.80;99.90;;;;;;5009098;28;19932;-78
2022/05/12 07:48:51;;;;;;;;;;;13.90;99.90;;;;;;4975788;28;19929;-78
2022/05/12 07:51:17;;;;;;;;;;;13.90;99.90;;;;;;4992845;28;19926;-78
2022/05/12 07:53:46;;;;;;;;;;;14.00;99.90;;;;;;5008650;28;19929;-79
2022/05/12 07:56:12;;;;;;;;;;;14.00;99.90;;;;;;4959981;28;19980;-79
2022/05/12 07:58:38;;;;;;;;;;;14.10;99.90;;;;;;4977311;28;19931;-77
2022/05/12 08:01:03;;;;;;;;;;;14.10;99.90;;;;;;4978798;28;19935;-79
2022/05/12 08:03:29;;;;;;;;;;;14.10;99.90;;;;;;4968785;28;19940;-79
2022/05/12 08:05:55;;;;;;;;;;;14.20;99.90;;;;;;5004332;28;19930;-79
2022/05/12 08:08:21;;;;;;;;;;;14.30;99.90;;;;;;4959165;28;20409;-80
2022/05/12 08:10:46;;;;;;;;;;;14.40;99.90;;;;;;4988392;28;19930;-79
2022/05/12 08:13:16;;;;;;;;;;;14.50;99.90;;;;;;4995565;28;20386;-80
2022/05/12 08:15:42;;;;;;;;;;;14.60;99.90;;;;;;4975768;28;19933;-80
2022/05/12 08:18:08;;;;;;;;;;;14.70;99.90;;;;;;5007977;28;19996;-81
2022/05/12 08:20:34;;;;;;;;;;;14.70;99.90;;;;;;5006269;28;19926;-81
2022/05/12 08:23:00;;;;;;;;;;;14.70;99.90;;;;;;4981743;28;19953;-80
2022/05/12 08:25:25;;;;;;;;;;;14.80;99.90;;;;;;4988055;28;20430;-81
2022/05/12 08:27:51;;;;;;;;;;;14.80;99.90;;;;;;4972245;28;19988;-80
2022/05/12 08:30:17;;;;;;;;;;;14.80;99.90;;;;;;4971761;28;19926;-81
2022/05/12 08:32:43;;;;;;;;;;;14.80;99.90;;;;;;4988589;28;20021;-82
2022/05/12 08:35:09;;;;;;;;;;;14.90;99.90;;;;;;5003958;28;19961;-79
2022/05/12 08:37:35;;;;;;;;;;;14.90;99.90;;;;;;5008210;28;19926;-80
2022/05/12 08:40:02;;;;;;;;;;;15.00;99.90;;;;;;4975339;28;19936;-79
2022/05/12 08:42:30;;;;;;;;;;;15.10;99.90;;;;;;5007783;28;20001;-81
2022/05/12 08:44:56;;;;;;;;;;;15.20;99.90;;;;;;5008029;28;19930;-82
2022/05/12 08:47:27;;;;;;;;;;;15.20;99.90;;;;;;4991094;28;19926;-80
2022/05/12 08:49:53;;;;;;;;;;;15.10;99.90;;;;;;5007895;28;19926;-81
2022/05/12 08:52:22;;;;;;;;;;;15.20;99.90;;;;;;5007437;28;19932;-81
2022/05/12 08:54:53;;;;;;;;;;;15.20;99.90;;;;;;5007020;28;20423;-82
2022/05/12 08:57:31;;;;;;;;;;;15.30;99.90;;;;;;5006845;28;19936;-81
2022/05/12 08:59:58;;;;;;;;;;;15.30;99.90;;;;;;5002094;28;19975;-81
2022/05/12 09:02:27;;;;;;;;;;;15.40;99.90;;;;;;4988414;28;20056;-79
2022/05/12 09:04:52;;;;;;;;;;;15.40;99.90;;;;;;4990396;28;20289;-81
2022/05/12 09:07:30;;;;;;;;;;;15.40;99.90;;;;;;4972435;28;19926;-80
2022/05/12 09:10:14;;;;;;;;;;;15.40;99.90;;;;;;4987131;28;20020;-81
2022/05/12 09:12:49;;;;;;;;;;;15.50;99.90;;;;;;4999025;28;19926;-81
2022/05/12 09:15:21;;;;;;;;;;;15.40;99.90;;;;;;4993745;28;20366;-82
2022/05/12 09:17:54;;;;;;;;;;;15.40;99.90;;;;;;4994827;28;19968;-83
2022/05/12 09:20:20;;;;;;;;;;;15.50;99.90;;;;;;4994877;28;20373;-81
2022/05/12 09:22:45;;;;;;;;;;;15.60;99.90;;;;;;4994019;28;19977;-80
2022/05/12 09:25:26;;;;;;;;;;;15.70;99.90;;;;;;5005764;28;19925;-81
2022/05/12 09:27:52;;;;;;;;;;;15.70;99.90;;;;;;5011173;28;19952;-80
2022/05/12 09:30:29;;;;;;;;;;;15.70;99.90;;;;;;5010888;28;19926;-80
2022/05/12 09:32:58;;;;;;;;;;;15.90;99.90;;;;;;4983363;28;19922;-78
2022/05/12 09:35:25;;;;;;;;;;;16.00;99.90;;;;;;5007993;28;19949;-81
2022/05/12 09:37:51;;;;;;;;;;;16.10;99.90;;;;;;5010762;28;20052;-80
2022/05/12 09:40:37;;;;;;;;;;;16.00;99.90;;;;;;4975015;28;19933;-80
2022/05/12 09:43:17;;;;;;;;;;;15.80;99.90;;;;;;4999930;28;19996;-81
2022/05/12 09:45:43;;;;;;;;;;;15.80;99.90;;;;;;4991489;28;19937;-79
2022/05/12 09:48:17;;;;;;;;;;;15.90;99.90;;;;;;4985721;28;19926;-82
2022/05/12 09:50:43;;;;;;;;;;;16.00;99.90;;;;;;5005298;28;19930;-81
2022/05/12 09:53:09;;;;;;;;;;;16.00;99.90;;;;;;4969750;28;19934;-81
2022/05/12 09:55:42;;;;;;;;;;;15.90;99.90;;;;;;5009423;28;19933;-81
2022/05/12 09:58:14;;;;;;;;;;;16.00;99.90;;;;;;5010038;28;19975;-81
2022/05/12 10:00:59;;;;;;;;;;;16.20;99.90;;;;;;5005180;28;19995;-80
2022/05/12 10:09:07;;;;;;;;;;;16.30;99.90;;;;;;4990759;28;20130;-78
2022/05/12 10:12:00;;;;;;;;;;;16.50;99.90;;;;;;4991582;28;20004;-80
2022/05/12 10:14:44;;;;;;;;;;;16.50;99.90;;;;;;4990026;28;19995;-87
2022/05/12 10:17:29;;;;;;;;;;;16.70;99.90;;;;;;4991707;28;19930;-85
2022/05/12 10:19:55;;;;;;;;;;;17.00;99.90;;;;;;4990624;28;19925;-83
2022/05/12 10:22:41;;;;;;;;;;;16.90;99.90;;;;;;4977138;28;19925;-83
2022/05/12 10:25:21;;;;;;;;;;;16.90;99.90;;;;;;4991715;28;19925;-79
2022/05/12 10:27:56;;;;;;;;;;;16.80;99.90;;;;;;5009329;28;19948;-79
2022/05/12 10:30:21;;;;;;;;;;;16.90;99.90;;;;;;4976727;28;19926;-81
2022/05/12 10:32:58;;;;;;;;;;;16.90;99.90;;;;;;4975924;28;19999;-79
2022/05/12 10:35:27;;;;;;;;;;;16.70;99.90;;;;;;5002850;28;20052;-79
2022/05/12 10:37:58;;;;;;;;;;;16.80;99.90;;;;;;4973675;28;20393;-78
2022/05/12 10:40:39;;;;;;;;;;;16.70;99.90;;;;;;4972476;28;19933;-78
2022/05/12 10:43:23;;;;;;;;;;;16.70;99.90;;;;;;4993539;28;20385;-79
2022/05/12 10:46:11;;;;;;;;;;;16.80;99.90;;;;;;5009437;28;19930;-79
2022/05/12 10:48:37;;;;;;;;;;;17.10;99.90;;;;;;4994271;28;19926;-79
2022/05/12 10:51:08;;;;;;;;;;;17.20;99.90;;;;;;5009505;28;20270;-79
2022/05/12 10:53:39;;;;;;;;;;;17.50;99.90;;;;;;5008991;28;19926;-78
2022/05/12 10:56:16;;;;;;;;;;;17.70;99.90;;;;;;4992982;28;20021;-77
2022/05/12 10:58:50;;;;;;;;;;;17.80;99.90;;;;;;5009641;28;19929;-78
2022/05/12 11:01:22;;;;;;;;;;;17.90;99.90;;;;;;5009525;28;19929;-78
2022/05/12 11:03:54;;;;;;;;;;;18.00;99.90;;;;;;5009017;28;20360;-78
2022/05/12 11:06:23;;;;;;;;;;;17.90;99.90;;;;;;4993533;28;19930;-77
2022/05/12 11:08:52;;;;;;;;;;;17.80;99.90;;;;;;5008479;28;19926;-78
2022/05/12 11:11:22;;;;;;;;;;;18.00;99.90;;;;;;5009654;28;19930;-77
2022/05/12 11:14:11;;;;;;;;;;;18.00;99.90;;;;;;5009030;28;19933;-78
2022/05/12 11:16:48;;;;;;;;;;;17.90;99.90;;;;;;4951268;28;19930;-78
2022/05/12 11:19:18;;;;;;;;;;;18.10;99.90;;;;;;4990082;28;19926;-77
2022/05/12 11:21:58;;;;;;;;;;;18.30;99.90;;;;;;4998952;28;19937;-79
2022/05/12 11:24:24;;;;;;;;;;;18.10;99.90;;;;;;4989616;28;19933;-77
2022/05/12 11:26:55;;;;;;;;;;;18.00;99.90;;;;;;4999481;28;19930;-78
2022/05/12 11:32:07;;;;;;;;;;;18.40;99.90;;;;;;4986827;28;19933;-78
2022/05/12 11:34:34;;;;;;;;;;;18.70;99.90;;;;;;4976488;28;19926;-80
2022/05/12 11:37:20;;;;;;;;;;;18.80;99.90;;;;;;4991974;28;20433;-78
2022/05/12 11:39:54;;;;;;;;;;;18.90;99.90;;;;;;4992293;28;20440;-79
2022/05/12 11:44:23;;;;;;;;;;;19.10;99.90;;;;;;4992022;28;19926;-79
2022/05/12 11:45:34;;;;;;;;;;;19.60;99.90;;;;;;4991686;28;20370;-78
2022/05/12 11:48:00;;;;;;;;;;;19.80;98.40;;;;;;5008876;28;19972;-77
2022/05/12 11:50:32;;;;;;;;;;;19.70;98.60;;;;;;5008620;28;19969;-78
2022/05/12 11:53:03;;;;;;;;;;;19.80;98.60;;;;;;4990661;28;20309;-79
2022/05/12 11:55:32;;;;;;;;;;;19.70;97.80;;;;;;5007374;28;19969;-78
2022/05/12 11:58:00;;;;;;;;;;;19.50;97.80;;;;;;4994233;28;19937;-78
2022/05/12 12:00:49;;;;;;;;;;;19.50;98.70;;;;;;5008776;28;19929;-79
2022/05/12 12:03:15;;;;;;;;;;;19.80;99.50;;;;;;4967106;28;20588;-79
2022/05/12 12:05:40;;;;;;;;;;;20.00;97.80;;;;;;5007431;28;19934;-78
2022/05/12 12:08:06;;;;;;;;;;;20.10;95.50;;;;;;5007006;28;19941;-78
2022/05/12 12:10:34;;;;;;;;;;;20.00;96.70;;;;;;4973259;28;20329;-78
2022/05/12 12:13:04;;;;;;;;;;;20.30;97.30;;;;;;4978488;28;19937;-78
2022/05/12 12:15:30;;;;;;;;;;;20.20;96.60;;;;;;5007755;28;20353;-77
2022/05/12 12:17:57;;;;;;;;;;;20.40;94.60;;;;;;5008563;28;19996;-79
2022/05/12 12:20:29;;;;;;;;;;;20.60;96.10;;;;;;4983807;28;19934;-83
2022/05/12 12:22:56;;;;;;;;;;;20.80;94.90;;;;;;4989665;28;20409;-86
2022/05/12 12:25:31;;;;;;;;;;;21.10;95.20;;;;;;4992667;28;20294;-87
2022/05/12 12:28:09;;;;;;;;;;;21.30;94.90;;;;;;4995747;28;19925;-80
2022/05/12 12:30:47;;;;;;;;;;;21.30;93.70;;;;;;5001599;28;19952;-86
2022/05/12 12:33:16;;;;;;;;;;;21.30;95.00;;;;;;4990983;28;19964;-82
2022/05/12 12:35:54;;;;;;;;;;;21.10;93.40;;;;;;4984835;28;19972;-82
2022/05/12 12:38:39;;;;;;;;;;;21.10;94.10;;;;;;4971034;28;20012;-85
2022/05/12 12:41:04;;;;;;;;;;;21.20;92.60;;;;;;4992064;28;20518;-81
2022/05/12 12:43:33;;;;;;;;;;;21.50;91.20;;;;;;5007354;28;19936;-77
2022/05/12 12:46:09;;;;;;;;;;;21.60;90.00;;;;;;4974648;28;19928;-79
2022/05/12 12:48:37;;;;;;;;;;;21.40;90.10;;;;;;4991592;28;19925;-76
2022/05/12 12:51:03;;;;;;;;;;;21.60;91.80;;;;;;4994783;28;19933;-77
2022/05/12 12:56:34;;;;;;;;;;;20.90;85.00;;;;;;4980174;28;19934;-80
2022/05/12 12:59:06;;;;;;;;;;;21.00;90.70;;;;;;4990592;28;19976;-79
2022/05/12 13:01:37;;;;;;;;;;;20.90;87.20;;;;;;4976103;28;20359;-79
2022/05/12 13:04:07;;;;;;;;;;;20.90;90.80;;;;;;4986322;28;19926;-78
2022/05/12 13:06:36;;;;;;;;;;;21.10;90.80;;;;;;4991853;28;19926;-76
2022/05/12 13:09:07;;;;;;;;;;;21.10;90.70;;;;;;4994165;28;19937;-77
2022/05/12 13:11:36;;;;;;;;;;;21.00;90.20;;;;;;4981280;28;19934;-76
2022/05/12 13:14:02;;;;;;;;;;;21.50;91.80;;;;;;4986493;28;19973;-75
2022/05/12 13:16:34;;;;;;;;;;;21.60;90.90;;;;;;4977723;28;20398;-77
2022/05/12 13:19:00;;;;;;;;;;;21.30;90.30;;;;;;4978457;28;19961;-80
2022/05/12 13:21:31;;;;;;;;;;;21.40;90.20;;;;;;4995342;28;19926;-79
2022/05/12 13:23:59;;;;;;;;;;;21.30;91.30;;;;;;4994353;28;19936;-79
2022/05/12 13:26:24;;;;;;;;;;;21.30;92.90;;;;;;4978753;28;19921;-78
2022/05/12 13:28:50;;;;;;;;;;;21.60;93.00;;;;;;4994277;28;19976;-77
2022/05/12 13:31:24;;;;;;;;;;;21.80;92.30;;;;;;4995403;28;20009;-78
2022/05/12 13:34:13;;;;;;;;;;;22.00;90.90;;;;;;5009389;28;20429;-76
2022/05/12 13:36:42;;;;;;;;;;;22.10;91.70;;;;;;5004698;28;19922;-76
2022/05/12 13:39:08;;;;;;;;;;;22.00;91.20;;;;;;4995296;28;19930;-79
2022/05/12 13:41:38;;;;;;;;;;;22.30;91.20;;;;;;4995519;28;19932;-77
2022/05/12 13:44:04;;;;;;;;;;;22.60;90.70;;;;;;4994561;28;19969;-77
2022/05/12 13:46:31;;;;;;;;;;;22.40;87.50;;;;;;4995129;28;19969;-79
2022/05/12 13:49:01;;;;;;;;;;;22.60;87.30;;;;;;5010855;28;19933;-78
2022/05/12 13:51:46;;;;;;;;;;;22.70;83.30;;;;;;4993903;28;20362;-77
2022/05/12 13:54:27;;;;;;;;;;;22.90;83.50;;;;;;4994785;28;19925;-78
2022/05/12 13:56:54;;;;;;;;;;;23.20;80.60;;;;;;4993194;28;20287;-77
2022/05/12 13:59:22;;;;;;;;;;;23.20;80.00;;;;;;5010726;28;20297;-78
2022/05/12 14:01:50;;;;;;;;;;;22.80;77.90;;;;;;5008679;28;20382;-79
2022/05/12 14:04:18;;;;;;;;;;;22.40;79.00;;;;;;4995026;28;20283;-79
2022/05/12 14:06:50;;;;;;;;;;;22.80;78.30;;;;;;5009933;28;19933;-76
2022/05/12 14:09:17;;;;;;;;;;;22.80;76.40;;;;;;5009853;28;19936;-78
2022/05/12 14:11:54;;;;;;;;;;;22.90;76.80;;;;;;4994484;28;20020;-75
2022/05/12 14:19:49;;;;;;;;;;;23.30;72.70;;;;;;4994380;28;19930;-76
2022/05/12 14:22:16;;;;;;;;;;;23.20;75.60;;;;;;4976868;28;19965;-78
2022/05/12 14:24:45;;;;;;;;;;;22.90;75.70;;;;;;4994539;28;20301;-79
2022/05/12 14:27:12;;;;;;;;;;;23.00;70.40;;;;;;4995016;28;19926;-77
2022/05/12 14:29:39;;;;;;;;;;;23.30;73.50;;;;;;4994046;28;19930;-76
2022/05/12 14:32:05;;;;;;;;;;;23.80;71.60;;;;;;4994857;28;19929;-79
2022/05/12 14:34:31;;;;;;;;;;;23.60;69.80;;;;;;4977551;28;19933;-77
2022/05/12 14:37:00;;;;;;;;;;;23.20;70.80;;;;;;5008755;28;19925;-78
2022/05/12 14:39:29;;;;;;;;;;;23.50;70.00;;;;;;4994687;28;19930;-77
2022/05/12 14:41:55;;;;;;;;;;;23.40;69.10;;;;;;5009561;28;20413;-78
2022/05/12 14:44:20;;;;;;;;;;;23.50;68.20;;;;;;4976803;28;19973;-79
2022/05/12 14:46:49;;;;;;;;;;;23.60;66.90;;;;;;5009417;28;19948;-78
2022/05/12 14:49:34;;;;;;;;;;;24.10;66.40;;;;;;5008804;28;19926;-78
2022/05/12 14:52:00;;;;;;;;;;;24.10;64.60;;;;;;4980648;28;19957;-78